sensor_id;sensor_type;location;lat;lon;timestamp;pressure;altitude;pressure_sealevel;temperature;humidity
50250;BME280;36133;42.522;27.456;2023-02-19T00:00:59;101440.53;;;15.23;39.52
50250;BME280;36133;42.522;27.456;2023-02-19T00:03:26;101214.28;;;13.68;39.84
50250;BME280;36133;42.522;27.456;2023-02-19T00:05:52;101295.06;;;13.87;40.48
50250;BME280;36133;42.522;27.456;2023-02-19T00:08:17;101260.69;;;13.73;40.21
50250;BME280;36133;42.522;27.456;2023-02-19T00:10:43;101468.00;;;15.00;40.38
50250;BME280;36133;42.522;27.456;2023-02-19T00:13:08;101457.38;;;15.05;40.39
50250;BME280;36133;42.522;27.456;2023-02-19T00:15:34;101460.69;;;15.01;40.34
50250;BME280;36133;42.522;27.456;2023-02-19T00:17:59;101440.78;;;14.93;40.33
50250;BME280;36133;42.522;27.456;2023-02-19T00:20:25;101421.69;;;14.87;40.27
50250;BME280;36133;42.522;27.456;2023-02-19T00:22:50;101433.88;;;14.91;40.25
50250;BME280;36133;42.522;27.456;2023-02-19T00:25:16;101433.09;;;15.38;39.23
50250;BME280;36133;42.522;27.456;2023-02-19T00:27:41;101176.00;;;13.56;39.87
50250;BME280;36133;42.522;27.456;2023-02-19T00:30:07;101300.16;;;13.97;40.54
50250;BME280;36133;42.522;27.456;2023-02-19T00:32:33;101387.13;;;14.53;40.49
50250;BME280;36133;42.522;27.456;2023-02-19T00:34:58;101421.53;;;14.95;40.09
50250;BME280;36133;42.522;27.456;2023-02-19T00:37:24;101221.75;;;14.15;39.10
50250;BME280;36133;42.522;27.456;2023-02-19T00:39:49;101374.97;;;14.77;39.74
50250;BME280;36133;42.522;27.456;2023-02-19T00:42:15;101381.75;;;15.70;38.26
50250;BME280;36133;42.522;27.456;2023-02-19T00:44:40;101360.88;;;14.94;39.38
50250;BME280;36133;42.522;27.456;2023-02-19T00:47:06;101410.22;;;15.67;38.57
50250;BME280;36133;42.522;27.456;2023-02-19T00:49:31;101330.88;;;15.16;38.79
50250;BME280;36133;42.522;27.456;2023-02-19T00:51:57;101324.47;;;14.54;39.77
50250;BME280;36133;42.522;27.456;2023-02-19T00:54:23;101230.00;;;14.28;38.90
50250;BME280;36133;42.522;27.456;2023-02-19T00:56:49;101406.13;;;15.43;38.78
50250;BME280;36133;42.522;27.456;2023-02-19T00:59:15;101286.31;;;14.69;38.67
50250;BME280;36133;42.522;27.456;2023-02-19T01:01:41;101198.72;;;14.04;38.80
50250;BME280;36133;42.522;27.456;2023-02-19T01:04:08;101268.00;;;14.50;38.96
50250;BME280;36133;42.522;27.456;2023-02-19T01:06:34;101390.16;;;15.27;39.02
50250;BME280;36133;42.522;27.456;2023-02-19T01:09:00;101216.75;;;13.84;39.81
50250;BME280;36133;42.522;27.456;2023-02-19T01:11:25;101361.66;;;14.88;39.47
50250;BME280;36133;42.522;27.456;2023-02-19T01:13:52;101344.56;;;14.38;40.29
50250;BME280;36133;42.522;27.456;2023-02-19T01:16:21;101330.28;;;14.79;40.09
50250;BME280;36133;42.522;27.456;2023-02-19T01:18:49;101138.84;;;13.57;39.95
50250;BME280;36133;42.522;27.456;2023-02-19T01:21:17;101268.81;;;14.22;39.84
50250;BME280;36133;42.522;27.456;2023-02-19T01:23:43;101275.13;;;14.99;38.92
50250;BME280;36133;42.522;27.456;2023-02-19T01:26:15;101375.94;;;14.41;40.67
50250;BME280;36133;42.522;27.456;2023-02-19T01:28:42;101356.41;;;15.15;39.13
50250;BME280;36133;42.522;27.456;2023-02-19T01:31:11;101383.63;;;15.69;38.35
50250;BME280;36133;42.522;27.456;2023-02-19T01:33:38;101313.72;;;15.15;38.56
50250;BME280;36133;42.522;27.456;2023-02-19T01:36:04;101103.84;;;13.62;38.91
50250;BME280;36133;42.522;27.456;2023-02-19T01:38:30;101320.31;;;14.37;40.17
50250;BME280;36133;42.522;27.456;2023-02-19T01:40:57;101166.63;;;13.16;41.04
50250;BME280;36133;42.522;27.456;2023-02-19T01:43:23;101315.81;;;13.73;41.80
50250;BME280;36133;42.522;27.456;2023-02-19T01:45:48;101337.00;;;14.06;41.60
50250;BME280;36133;42.522;27.456;2023-02-19T01:48:21;101341.84;;;14.60;40.47
50250;BME280;36133;42.522;27.456;2023-02-19T01:53:27;101349.38;;;13.51;42.90
50250;BME280;36133;42.522;27.456;2023-02-19T01:55:56;101349.88;;;14.19;41.56
50250;BME280;36133;42.522;27.456;2023-02-19T01:58:25;101287.94;;;14.07;41.27
50250;BME280;36133;42.522;27.456;2023-02-19T02:00:51;101334.53;;;13.90;41.99
50250;BME280;36133;42.522;27.456;2023-02-19T02:03:18;101299.59;;;13.59;42.07
50250;BME280;36133;42.522;27.456;2023-02-19T02:06:04;101343.69;;;13.46;42.88
50250;BME280;36133;42.522;27.456;2023-02-19T02:08:32;101109.75;;;12.80;41.35
50250;BME280;36133;42.522;27.456;2023-02-19T02:11:17;101347.25;;;13.68;42.41
50250;BME280;36133;42.522;27.456;2023-02-19T02:13:44;101213.97;;;13.56;40.89
50250;BME280;36133;42.522;27.456;2023-02-19T02:16:22;101331.44;;;14.14;41.18
50250;BME280;36133;42.522;27.456;2023-02-19T02:19:51;101339.16;;;15.01;39.78
50250;BME280;36133;42.522;27.456;2023-02-19T02:22:18;101316.97;;;14.07;41.05
50250;BME280;36133;42.522;27.456;2023-02-19T02:32:50;101350.13;;;13.81;42.10
50250;BME280;36133;42.522;27.456;2023-02-19T02:35:22;101307.19;;;13.91;41.49
50250;BME280;36133;42.522;27.456;2023-02-19T02:37:49;101178.63;;;13.22;41.46
50250;BME280;36133;42.522;27.456;2023-02-19T02:40:17;101315.19;;;13.57;42.39
50250;BME280;36133;42.522;27.456;2023-02-19T02:42:44;101295.50;;;12.97;43.34
50250;BME280;36133;42.522;27.456;2023-02-19T02:45:26;101354.66;;;13.38;43.40
50250;BME280;36133;42.522;27.456;2023-02-19T02:48:12;101190.63;;;13.34;41.62
50250;BME280;36133;42.522;27.456;2023-02-19T02:53:10;101349.28;;;14.02;42.31
50250;BME280;36133;42.522;27.456;2023-02-19T02:55:57;101183.88;;;12.57;42.90
50250;BME280;36133;42.522;27.456;2023-02-19T02:58:26;101357.56;;;13.94;42.47
50250;BME280;36133;42.522;27.456;2023-02-19T03:01:06;101349.31;;;13.66;42.81
50250;BME280;36133;42.522;27.456;2023-02-19T03:03:55;101358.44;;;14.44;41.54
50250;BME280;36133;42.522;27.456;2023-02-19T03:06:24;101332.50;;;13.70;42.38
50250;BME280;36133;42.522;27.456;2023-02-19T03:08:59;101351.19;;;14.29;41.72
50250;BME280;36133;42.522;27.456;2023-02-19T03:11:26;101357.84;;;14.76;40.52
50250;BME280;36133;42.522;27.456;2023-02-19T03:14:17;101355.47;;;14.17;41.84
50250;BME280;36133;42.522;27.456;2023-02-19T03:17:10;101347.31;;;14.17;41.22
50250;BME280;36133;42.522;27.456;2023-02-19T03:19:57;101239.50;;;13.04;42.39
50250;BME280;36133;42.522;27.456;2023-02-19T03:22:30;101196.56;;;12.86;42.17
50250;BME280;36133;42.522;27.456;2023-02-19T03:25:12;101196.97;;;13.05;41.47
50250;BME280;36133;42.522;27.456;2023-02-19T03:27:59;101385.59;;;14.01;42.26
50250;BME280;36133;42.522;27.456;2023-02-19T03:30:30;101348.34;;;13.52;42.45
50250;BME280;36133;42.522;27.456;2023-02-19T03:33:02;101407.69;;;13.76;42.52
50250;BME280;36133;42.522;27.456;2023-02-19T03:35:35;101182.19;;;12.86;41.77
50250;BME280;36133;42.522;27.456;2023-02-19T03:38:08;101396.47;;;14.44;41.46
50250;BME280;36133;42.522;27.456;2023-02-19T03:40:48;101275.88;;;13.10;42.04
50250;BME280;36133;42.522;27.456;2023-02-19T03:43:30;101359.81;;;13.33;42.81
50250;BME280;36133;42.522;27.456;2023-02-19T03:46:08;101382.34;;;13.33;43.03
50250;BME280;36133;42.522;27.456;2023-02-19T03:48:44;101206.56;;;12.71;41.98
50250;BME280;36133;42.522;27.456;2023-02-19T03:56:26;101346.22;;;12.59;44.39
50250;BME280;36133;42.522;27.456;2023-02-19T03:59:01;101322.03;;;12.57;43.91
50250;BME280;36133;42.522;27.456;2023-02-19T04:01:43;101378.47;;;12.69;44.53
50250;BME280;36133;42.522;27.456;2023-02-19T04:04:42;101418.63;;;12.50;45.50
50250;BME280;36133;42.522;27.456;2023-02-19T04:07:08;101376.69;;;12.23;45.58
50250;BME280;36133;42.522;27.456;2023-02-19T04:09:44;101268.06;;;11.89;45.34
50250;BME280;36133;42.522;27.456;2023-02-19T04:12:11;101137.75;;;11.25;44.90
50250;BME280;36133;42.522;27.456;2023-02-19T04:14:43;101413.28;;;13.09;44.84
50250;BME280;36133;42.522;27.456;2023-02-19T04:17:34;101348.28;;;12.05;46.03
50250;BME280;36133;42.522;27.456;2023-02-19T04:20:02;101185.94;;;10.90;46.48
50250;BME280;36133;42.522;27.456;2023-02-19T04:22:30;101412.75;;;12.24;46.34
50250;BME280;36133;42.522;27.456;2023-02-19T04:24:56;101331.09;;;12.94;43.73
50250;BME280;36133;42.522;27.456;2023-02-19T04:27:22;101410.59;;;13.39;43.51
50250;BME280;36133;42.522;27.456;2023-02-19T04:29:47;101424.91;;;13.33;43.35
50250;BME280;36133;42.522;27.456;2023-02-19T04:32:13;101405.50;;;13.87;42.37
50250;BME280;36133;42.522;27.456;2023-02-19T04:34:39;101234.72;;;13.06;41.63
50250;BME280;36133;42.522;27.456;2023-02-19T04:37:05;101279.97;;;11.57;45.10
50250;BME280;36133;42.522;27.456;2023-02-19T04:39:31;101432.47;;;12.10;46.52
50250;BME280;36133;42.522;27.456;2023-02-19T04:41:56;101443.16;;;11.80;47.13
50250;BME280;36133;42.522;27.456;2023-02-19T04:44:22;101419.44;;;12.13;46.28
50250;BME280;36133;42.522;27.456;2023-02-19T04:46:48;101415.16;;;11.96;46.85
50250;BME280;36133;42.522;27.456;2023-02-19T04:49:13;101426.72;;;11.90;47.12
50250;BME280;36133;42.522;27.456;2023-02-19T04:51:39;101411.56;;;11.33;47.76
50250;BME280;36133;42.522;27.456;2023-02-19T04:54:05;101451.44;;;11.79;47.34
50250;BME280;36133;42.522;27.456;2023-02-19T04:56:31;101477.78;;;11.37;48.71
50250;BME280;36133;42.522;27.456;2023-02-19T04:58:57;101424.63;;;11.61;47.76
50250;BME280;36133;42.522;27.456;2023-02-19T05:01:23;101326.22;;;11.00;47.98
50250;BME280;36133;42.522;27.456;2023-02-19T05:03:49;101438.97;;;11.30;48.34
50250;BME280;36133;42.522;27.456;2023-02-19T05:06:15;101408.06;;;10.61;49.74
50250;BME280;36133;42.522;27.456;2023-02-19T05:08:40;101422.09;;;11.28;48.26
50250;BME280;36133;42.522;27.456;2023-02-19T05:11:08;101473.75;;;11.41;48.82
50250;BME280;36133;42.522;27.456;2023-02-19T05:13:35;101481.16;;;11.87;48.23
50250;BME280;36133;42.522;27.456;2023-02-19T05:16:09;101323.34;;;11.01;48.23
50250;BME280;36133;42.522;27.456;2023-02-19T05:18:38;101479.50;;;11.78;48.74
50250;BME280;36133;42.522;27.456;2023-02-19T05:21:04;101219.88;;;9.90;49.50
50250;BME280;36133;42.522;27.456;2023-02-19T05:23:30;101471.38;;;11.78;48.81
50250;BME280;36133;42.522;27.456;2023-02-19T05:25:55;101410.19;;;11.37;49.23
50250;BME280;36133;42.522;27.456;2023-02-19T05:28:22;101448.34;;;11.51;49.15
50250;BME280;36133;42.522;27.456;2023-02-19T05:30:53;101469.13;;;12.20;48.02
50250;BME280;36133;42.522;27.456;2023-02-19T05:33:23;100948.28;;;9.04;47.68
50250;BME280;36133;42.522;27.456;2023-02-19T05:35:51;101478.81;;;11.84;49.31
50250;BME280;36133;42.522;27.456;2023-02-19T05:38:18;101464.22;;;12.24;48.76
50250;BME280;36133;42.522;27.456;2023-02-19T05:40:44;101460.13;;;11.97;49.23
50250;BME280;36133;42.522;27.456;2023-02-19T05:43:11;101467.25;;;12.67;47.78
50250;BME280;36133;42.522;27.456;2023-02-19T05:45:36;101403.84;;;12.15;48.14
50250;BME280;36133;42.522;27.456;2023-02-19T05:48:03;101447.09;;;12.46;47.90
50250;BME280;36133;42.522;27.456;2023-02-19T05:50:30;101421.63;;;11.87;49.33
50250;BME280;36133;42.522;27.456;2023-02-19T05:53:02;101430.09;;;12.15;49.13
50250;BME280;36133;42.522;27.456;2023-02-19T05:55:28;101472.25;;;12.93;48.16
50250;BME280;36133;42.522;27.456;2023-02-19T05:57:54;101465.34;;;13.05;47.67
50250;BME280;36133;42.522;27.456;2023-02-19T06:00:20;101400.78;;;13.23;46.69
50250;BME280;36133;42.522;27.456;2023-02-19T06:02:46;101353.38;;;12.89;46.16
50250;BME280;36133;42.522;27.456;2023-02-19T06:05:12;101368.94;;;13.83;45.40
50250;BME280;36133;42.522;27.456;2023-02-19T06:07:38;101491.53;;;14.86;44.37
50250;BME280;36133;42.522;27.456;2023-02-19T06:10:07;101480.97;;;15.61;43.12
50250;BME280;36133;42.522;27.456;2023-02-19T06:12:33;101454.47;;;15.41;42.63
50250;BME280;36133;42.522;27.456;2023-02-19T06:14:58;101425.13;;;15.78;41.57
50250;BME280;36133;42.522;27.456;2023-02-19T06:17:24;101501.56;;;15.76;42.61
50250;BME280;36133;42.522;27.456;2023-02-19T06:19:49;101424.78;;;14.34;44.95
50250;BME280;36133;42.522;27.456;2023-02-19T06:22:15;101512.75;;;14.98;44.90
50250;BME280;36133;42.522;27.456;2023-02-19T06:24:40;101502.34;;;15.64;43.92
50250;BME280;36133;42.522;27.456;2023-02-19T06:27:07;101353.13;;;14.57;44.05
50250;BME280;36133;42.522;27.456;2023-02-19T06:29:32;101501.75;;;16.29;42.48
50250;BME280;36133;42.522;27.456;2023-02-19T06:31:59;101524.44;;;16.50;42.10
50250;BME280;36133;42.522;27.456;2023-02-19T06:34:25;101432.16;;;16.27;41.64
50250;BME280;36133;42.522;27.456;2023-02-19T06:36:51;101443.91;;;16.34;41.70
50250;BME280;36133;42.522;27.456;2023-02-19T06:39:16;101299.63;;;15.60;41.34
50250;BME280;36133;42.522;27.456;2023-02-19T06:41:42;101368.84;;;16.51;39.93
50250;BME280;36133;42.522;27.456;2023-02-19T06:44:08;101278.69;;;16.46;39.62
50250;BME280;36133;42.522;27.456;2023-02-19T06:46:33;101306.41;;;17.59;37.72
50250;BME280;36133;42.522;27.456;2023-02-19T06:49:00;101548.38;;;18.25;38.89
50250;BME280;36133;42.522;27.456;2023-02-19T06:51:26;101354.34;;;15.78;41.47
50250;BME280;36133;42.522;27.456;2023-02-19T06:53:54;101269.44;;;15.41;41.80
50250;BME280;36133;42.522;27.456;2023-02-19T06:56:24;101361.44;;;15.18;43.03
50250;BME280;36133;42.522;27.456;2023-02-19T06:58:51;101289.28;;;14.81;42.88
50250;BME280;36133;42.522;27.456;2023-02-19T07:01:17;101417.84;;;15.50;43.41
50250;BME280;36133;42.522;27.456;2023-02-19T07:03:43;101284.31;;;14.28;43.61
50250;BME280;36133;42.522;27.456;2023-02-19T07:06:08;101383.34;;;14.75;43.86
50250;BME280;36133;42.522;27.456;2023-02-19T07:08:34;101517.59;;;15.30;44.56
50250;BME280;36133;42.522;27.456;2023-02-19T07:10:59;101422.75;;;15.20;43.61
50250;BME280;36133;42.522;27.456;2023-02-19T07:13:25;101552.50;;;15.82;44.00
50250;BME280;36133;42.522;27.456;2023-02-19T07:15:56;101176.16;;;14.04;43.30
50250;BME280;36133;42.522;27.456;2023-02-19T07:18:22;101424.25;;;14.95;44.73
50250;BME280;36133;42.522;27.456;2023-02-19T07:20:48;101496.47;;;15.32;44.75
50250;BME280;36133;42.522;27.456;2023-02-19T07:23:13;101548.91;;;15.75;44.39
50250;BME280;36133;42.522;27.456;2023-02-19T07:25:39;101284.56;;;14.55;44.07
50250;BME280;36133;42.522;27.456;2023-02-19T07:28:05;101548.78;;;16.64;42.69
50250;BME280;36133;42.522;27.456;2023-02-19T07:30:34;101449.75;;;16.18;42.60
50250;BME280;36133;42.522;27.456;2023-02-19T07:33:02;101086.03;;;14.83;40.78
50250;BME280;36133;42.522;27.456;2023-02-19T07:35:28;101072.88;;;15.00;40.01
50250;BME280;36133;42.522;27.456;2023-02-19T07:37:53;101444.53;;;16.42;41.90
50250;BME280;36133;42.522;27.456;2023-02-19T07:40:22;101572.31;;;17.71;40.50
50250;BME280;36133;42.522;27.456;2023-02-19T07:42:51;101259.53;;;17.31;38.18
50250;BME280;36133;42.522;27.456;2023-02-19T07:45:27;101575.09;;;20.22;36.32
50250;BME280;36133;42.522;27.456;2023-02-19T07:47:53;101362.28;;;20.63;33.87
50250;BME280;36133;42.522;27.456;2023-02-19T07:50:22;101059.31;;;17.68;34.87
50250;BME280;36133;42.522;27.456;2023-02-19T07:52:48;101376.66;;;21.28;32.76
50250;BME280;36133;42.522;27.456;2023-02-19T07:55:19;101380.75;;;20.02;34.30
50250;BME280;36133;42.522;27.456;2023-02-19T07:57:45;101173.03;;;19.69;32.79
50250;BME280;36133;42.522;27.456;2023-02-19T08:00:11;101372.28;;;21.56;31.81
50250;BME280;36133;42.522;27.456;2023-02-19T08:02:37;101270.53;;;20.70;32.00
50250;BME280;36133;42.522;27.456;2023-02-19T08:05:21;101414.88;;;21.99;31.44
50250;BME280;36133;42.522;27.456;2023-02-19T08:07:49;101380.81;;;22.45;30.38
50250;BME280;36133;42.522;27.456;2023-02-19T08:10:15;101429.53;;;23.99;28.84
50250;BME280;36133;42.522;27.456;2023-02-19T08:13:00;101373.97;;;23.63;29.01
50250;BME280;36133;42.522;27.456;2023-02-19T08:16:08;101533.69;;;22.12;31.98
50250;BME280;36133;42.522;27.456;2023-02-19T08:18:34;101190.81;;;19.48;32.90
50250;BME280;36133;42.522;27.456;2023-02-19T08:21:00;101307.94;;;20.06;33.36
50250;BME280;36133;42.522;27.456;2023-02-19T08:23:26;101374.81;;;22.48;30.89
50250;BME280;36133;42.522;27.456;2023-02-19T08:25:56;101275.91;;;21.57;31.30
50250;BME280;36133;42.522;27.456;2023-02-19T08:28:25;101194.63;;;21.45;30.35
50250;BME280;36133;42.522;27.456;2023-02-19T08:30:51;101363.19;;;23.40;29.21
50250;BME280;36133;42.522;27.456;2023-02-19T08:33:19;101322.94;;;23.61;28.47
50250;BME280;36133;42.522;27.456;2023-02-19T08:35:45;101339.59;;;24.67;27.25
50250;BME280;36133;42.522;27.456;2023-02-19T08:38:12;101426.38;;;24.44;27.86
50250;BME280;36133;42.522;27.456;2023-02-19T08:40:39;101303.13;;;22.21;30.12
50250;BME280;36133;42.522;27.456;2023-02-19T08:43:12;101219.19;;;22.02;29.39
50250;BME280;36133;42.522;27.456;2023-02-19T08:45:43;101372.25;;;24.75;27.13
50250;BME280;36133;42.522;27.456;2023-02-19T08:48:10;101423.16;;;24.90;27.61
50250;BME280;36133;42.522;27.456;2023-02-19T08:50:36;101271.56;;;22.07;30.22
50250;BME280;36133;42.522;27.456;2023-02-19T08:53:03;101358.91;;;23.27;29.56
50250;BME280;36133;42.522;27.456;2023-02-19T08:55:29;101475.88;;;23.20;30.26
50250;BME280;36133;42.522;27.456;2023-02-19T08:57:55;101032.09;;;20.00;31.37
50250;BME280;36133;42.522;27.456;2023-02-19T09:00:21;101060.16;;;20.59;30.91
50250;BME280;36133;42.522;27.456;2023-02-19T09:02:47;101197.72;;;22.54;29.22
50250;BME280;36133;42.522;27.456;2023-02-19T09:05:13;101317.47;;;22.23;30.28
50250;BME280;36133;42.522;27.456;2023-02-19T09:07:39;101086.06;;;21.59;29.32
50250;BME280;36133;42.522;27.456;2023-02-19T09:10:06;101312.28;;;24.71;27.05
50250;BME280;36133;42.522;27.456;2023-02-19T09:12:32;101108.38;;;23.48;27.21
50250;BME280;36133;42.522;27.456;2023-02-19T09:14:58;101500.44;;;23.82;29.13
50250;BME280;36133;42.522;27.456;2023-02-19T09:17:24;101352.75;;;22.65;29.85
50250;BME280;36133;42.522;27.456;2023-02-19T09:19:49;101402.94;;;23.88;28.45
50250;BME280;36133;42.522;27.456;2023-02-19T09:22:15;101319.03;;;23.57;28.19
50250;BME280;36133;42.522;27.456;2023-02-19T09:24:42;101442.50;;;23.77;28.99
50250;BME280;36133;42.522;27.456;2023-02-19T09:27:08;101494.59;;;24.81;28.22
50250;BME280;36133;42.522;27.456;2023-02-19T09:29:34;101428.00;;;25.67;26.58
50250;BME280;36133;42.522;27.456;2023-02-19T09:32:00;101475.41;;;25.91;26.15
50250;BME280;36133;42.522;27.456;2023-02-19T09:34:27;101322.06;;;24.83;26.16
50250;BME280;36133;42.522;27.456;2023-02-19T09:36:53;101428.50;;;26.72;25.08
50250;BME280;36133;42.522;27.456;2023-02-19T09:39:19;101316.28;;;26.90;23.71
50250;BME280;36133;42.522;27.456;2023-02-19T09:41:50;101300.91;;;24.57;25.69
50250;BME280;36133;42.522;27.456;2023-02-19T09:44:24;101211.84;;;23.06;26.92
50250;BME280;36133;42.522;27.456;2023-02-19T09:46:52;101441.69;;;25.99;25.30
50250;BME280;36133;42.522;27.456;2023-02-19T09:49:34;101068.25;;;24.04;25.05
50250;BME280;36133;42.522;27.456;2023-02-19T09:52:06;101474.81;;;25.31;26.08
50250;BME280;36133;42.522;27.456;2023-02-19T09:54:36;101446.78;;;26.48;24.75
50250;BME280;36133;42.522;27.456;2023-02-19T09:57:03;101462.28;;;26.59;24.73
50250;BME280;36133;42.522;27.456;2023-02-19T09:59:35;101260.72;;;26.41;23.66
50250;BME280;36133;42.522;27.456;2023-02-19T10:02:04;101019.91;;;23.39;24.95
50250;BME280;36133;42.522;27.456;2023-02-19T10:04:37;101202.00;;;24.39;25.43
50250;BME280;36133;42.522;27.456;2023-02-19T10:07:13;101276.25;;;25.91;24.34
50250;BME280;36133;42.522;27.456;2023-02-19T10:09:39;101015.47;;;23.80;24.71
50250;BME280;36133;42.522;27.456;2023-02-19T10:12:17;101419.91;;;26.69;24.58
50250;BME280;36133;42.522;27.456;2023-02-19T10:14:49;101218.75;;;27.42;22.46
50250;BME280;36133;42.522;27.456;2023-02-19T10:17:26;101281.53;;;27.72;22.42
50250;BME280;36133;42.522;27.456;2023-02-19T10:19:53;101412.19;;;27.71;23.18
50250;BME280;36133;42.522;27.456;2023-02-19T10:22:20;101228.38;;;26.21;23.51
50250;BME280;36133;42.522;27.456;2023-02-19T10:24:49;101359.56;;;26.20;24.21
50250;BME280;36133;42.522;27.456;2023-02-19T10:27:16;101428.75;;;26.30;24.11
50250;BME280;36133;42.522;27.456;2023-02-19T10:29:46;101418.97;;;27.34;22.76
50250;BME280;36133;42.522;27.456;2023-02-19T10:32:21;101411.50;;;27.25;23.02
50250;BME280;36133;42.522;27.456;2023-02-19T10:37:35;101355.63;;;26.77;23.37
50250;BME280;36133;42.522;27.456;2023-02-19T10:40:21;101380.31;;;26.58;23.34
50250;BME280;36133;42.522;27.456;2023-02-19T10:42:58;101363.38;;;26.90;23.15
50250;BME280;36133;42.522;27.456;2023-02-19T10:45:38;101328.44;;;26.89;23.16
50250;BME280;36133;42.522;27.456;2023-02-19T10:48:06;101355.38;;;27.58;22.44
50250;BME280;36133;42.522;27.456;2023-02-19T10:50:50;101322.47;;;27.41;22.23
50250;BME280;36133;42.522;27.456;2023-02-19T10:53:23;101356.97;;;27.10;23.04
50250;BME280;36133;42.522;27.456;2023-02-19T10:56:22;101367.84;;;28.73;21.62
50250;BME280;36133;42.522;27.456;2023-02-19T10:58:50;101323.63;;;29.49;20.45
50250;BME280;36133;42.522;27.456;2023-02-19T11:01:19;101157.53;;;28.02;20.69
50250;BME280;36133;42.522;27.456;2023-02-19T11:03:46;101347.72;;;30.28;19.73
50250;BME280;36133;42.522;27.456;2023-02-19T11:06:14;100932.63;;;28.82;18.65
50250;BME280;36133;42.522;27.456;2023-02-19T11:08:58;101159.06;;;32.80;17.10
50250;BME280;36133;42.522;27.456;2023-02-19T11:11:35;100914.00;;;33.78;15.16
50250;BME280;36133;42.522;27.456;2023-02-19T11:14:11;101336.13;;;31.28;18.71
50250;BME280;36133;42.522;27.456;2023-02-19T11:16:50;101225.44;;;30.46;19.35
50250;BME280;36133;42.522;27.456;2023-02-19T11:19:41;101332.19;;;30.74;19.52
50250;BME280;36133;42.522;27.456;2023-02-19T11:22:32;100888.69;;;28.38;19.17
50250;BME280;36133;42.522;27.456;2023-02-19T11:28:00;101301.09;;;29.69;20.14
50250;BME280;36133;42.522;27.456;2023-02-19T11:30:45;100975.50;;;28.95;19.71
50250;BME280;36133;42.522;27.456;2023-02-19T11:36:15;101040.22;;;30.57;18.27
50250;BME280;36133;42.522;27.456;2023-02-19T11:38:42;100951.75;;;30.40;18.20
50250;BME280;36133;42.522;27.456;2023-02-19T11:41:40;101292.72;;;31.35;19.09
50250;BME280;36133;42.522;27.456;2023-02-19T11:50:02;101152.19;;;31.09;18.62
50250;BME280;36133;42.522;27.456;2023-02-19T11:52:41;101237.47;;;32.04;17.97
50250;BME280;36133;42.522;27.456;2023-02-19T11:55:52;101252.44;;;30.18;19.52
50250;BME280;36133;42.522;27.456;2023-02-19T12:04:39;101230.53;;;35.13;16.31
50250;BME280;36133;42.522;27.456;2023-02-19T12:23:57;101237.31;;;32.32;17.23
50250;BME280;36133;42.522;27.456;2023-02-19T12:26:29;101126.25;;;32.29;16.67
50250;BME280;36133;42.522;27.456;2023-02-19T12:31:53;101080.91;;;32.41;16.33
50250;BME280;36133;42.522;27.456;2023-02-19T12:45:05;101096.56;;;29.99;17.88
50250;BME280;36133;42.522;27.456;2023-02-19T12:47:36;101219.59;;;27.82;20.40
50250;BME280;36133;42.522;27.456;2023-02-19T12:52:35;101203.06;;;28.54;19.80
50250;BME280;36133;42.522;27.456;2023-02-19T12:55:20;101169.69;;;31.82;16.90
50250;BME280;36133;42.522;27.456;2023-02-19T12:57:46;100976.59;;;29.13;18.16
50250;BME280;36133;42.522;27.456;2023-02-19T13:00:38;101201.00;;;32.01;16.81
50250;BME280;36133;42.522;27.456;2023-02-19T13:08:41;101167.41;;;28.85;19.32
50250;BME280;36133;42.522;27.456;2023-02-19T13:11:31;101189.81;;;31.34;17.80
50250;BME280;36133;42.522;27.456;2023-02-19T13:14:27;101080.16;;;32.75;16.43
50250;BME280;36133;42.522;27.456;2023-02-19T13:16:59;101170.28;;;34.69;15.24
50250;BME280;36133;42.522;27.456;2023-02-19T13:19:25;101068.22;;;34.91;14.67
50250;BME280;36133;42.522;27.456;2023-02-19T13:22:00;101039.00;;;34.21;14.96
50250;BME280;36133;42.522;27.456;2023-02-19T13:24:46;101072.94;;;37.03;13.39
50250;BME280;36133;42.522;27.456;2023-02-19T13:38:03;101113.94;;;29.77;18.41
50250;BME280;36133;42.522;27.456;2023-02-19T13:40:36;101172.00;;;30.30;18.64
50250;BME280;36133;42.522;27.456;2023-02-19T13:43:18;101176.59;;;31.39;17.43
50250;BME280;36133;42.522;27.456;2023-02-19T13:46:02;101146.50;;;30.23;18.66
50250;BME280;36133;42.522;27.456;2023-02-19T13:48:34;101172.38;;;31.73;17.62
50250;BME280;36133;42.522;27.456;2023-02-19T14:04:42;101140.25;;;32.06;18.01
50250;BME280;36133;42.522;27.456;2023-02-19T14:14:50;101142.38;;;30.48;19.48
50250;BME280;36133;42.522;27.456;2023-02-19T14:17:39;101138.44;;;32.02;18.00
50250;BME280;36133;42.522;27.456;2023-02-19T14:31:06;101120.59;;;29.49;20.49
50250;BME280;36133;42.522;27.456;2023-02-19T14:33:45;101144.16;;;27.80;21.75
50250;BME280;36133;42.522;27.456;2023-02-19T14:36:28;101149.75;;;26.27;23.66
50250;BME280;36133;42.522;27.456;2023-02-19T14:39:33;101124.94;;;26.07;24.01
50250;BME280;36133;42.522;27.456;2023-02-19T14:41:55;101150.38;;;26.04;24.21
50250;BME280;36133;42.522;27.456;2023-02-19T14:44:24;100696.50;;;22.72;25.02
50250;BME280;36133;42.522;27.456;2023-02-19T14:47:04;101033.50;;;25.32;24.78
50250;BME280;36133;42.522;27.456;2023-02-19T14:49:44;101032.91;;;25.76;24.35
50250;BME280;36133;42.522;27.456;2023-02-19T14:52:34;101161.72;;;25.26;25.66
50250;BME280;36133;42.522;27.456;2023-02-19T14:55:11;101149.31;;;25.49;25.36
50250;BME280;36133;42.522;27.456;2023-02-19T14:57:42;101143.75;;;25.18;25.88
50250;BME280;36133;42.522;27.456;2023-02-19T15:03:36;101154.81;;;25.13;25.70